createdAt,value
2022-11-21T00:04:38.210Z,12.38
2022-11-21T00:09:40.388Z,10.07
2022-11-21T00:14:42.843Z,8.75
2022-11-21T00:19:45.349Z,14.75
2022-11-21T00:24:52.975Z,7.93
2022-11-21T00:29:56.319Z,9.90
2022-11-21T00:34:58.587Z,10.38
2022-11-21T00:40:00.944Z,8.50
2022-11-21T00:45:04.214Z,5.05
2022-11-21T00:50:07.097Z,4.78
2022-11-21T00:55:09.835Z,8.38
2022-11-21T01:00:12.958Z,7.15
2022-11-21T01:05:15.268Z,9.45
2022-11-21T01:10:17.550Z,5.82
2022-11-21T01:15:19.778Z,6.75
2022-11-21T01:20:22.176Z,6.80
2022-11-21T01:25:24.361Z,7.72
2022-11-21T01:30:26.574Z,11.82
2022-11-21T01:35:28.979Z,6.35
2022-11-21T01:40:39.119Z,7.28
2022-11-21T01:45:53.357Z,12.18
2022-11-21T01:50:58.646Z,4.57
2022-11-21T01:56:02.067Z,9.40
2022-11-21T02:01:04.393Z,4.40
2022-11-21T02:06:09.459Z,7.78
2022-11-21T02:11:36.279Z,6.93
2022-11-21T02:16:39.524Z,7.07
2022-11-21T02:21:54.659Z,8.55
2022-11-21T02:26:57.664Z,5.90
2022-11-21T02:32:03.298Z,7.50
2022-11-21T02:37:05.855Z,7.50
2022-11-21T02:42:16.976Z,6.20
2022-11-21T02:47:21.280Z,7.13
2022-11-21T02:52:24.032Z,3.78
2022-11-21T02:57:26.402Z,4.40
2022-11-21T03:02:28.729Z,9.65
2022-11-21T03:07:31.147Z,8.93
2022-11-21T03:12:33.349Z,6.10
2022-11-21T03:17:35.843Z,6.90
2022-11-21T03:22:38.059Z,2.05
2022-11-21T03:27:40.384Z,2.70
2022-11-21T03:32:42.761Z,4.28
2022-11-21T03:37:45.188Z,2.28
2022-11-21T03:42:47.451Z,4.45
2022-11-21T03:47:49.800Z,3.13
2022-11-21T03:52:52.149Z,7.28
2022-11-21T03:57:54.398Z,2.70
2022-11-21T04:02:56.593Z,5.82
2022-11-21T04:07:58.903Z,3.67
2022-11-21T04:13:01.108Z,9.20
2022-11-21T04:18:03.481Z,3.45
2022-11-21T04:23:06.281Z,10.20
2022-11-21T04:28:13.354Z,3.58
2022-11-21T04:33:16.759Z,8.70
2022-11-21T04:38:19.068Z,7.75
2022-11-21T04:43:21.314Z,2.67
2022-11-21T04:48:23.487Z,11.55
2022-11-21T04:53:25.736Z,9.43
2022-11-21T04:58:28.003Z,7.38
2022-11-21T05:03:30.259Z,9.68
2022-11-21T05:08:32.441Z,15.88
2022-11-21T05:13:34.773Z,7.35
2022-11-21T05:18:37.029Z,3.83
2022-11-21T05:23:39.317Z,8.18
2022-11-21T05:28:48.984Z,3.65
2022-11-21T05:33:51.298Z,6.72
2022-11-21T05:38:53.525Z,4.18
2022-11-21T05:43:56.085Z,12.10
2022-11-21T05:48:58.463Z,18.38
2022-11-21T05:54:02.686Z,10.98
2022-11-21T05:59:04.882Z,16.35
2022-11-21T06:04:08.153Z,16.05
2022-11-21T06:09:10.409Z,18.58
2022-11-21T06:14:12.759Z,15.40
2022-11-21T06:19:15.513Z,16.15
2022-11-21T06:24:26.976Z,20.45
2022-11-21T06:29:29.426Z,19.90
2022-11-21T06:34:31.887Z,22.40
2022-11-21T06:39:34.206Z,24.05
2022-11-21T06:44:36.517Z,18.25
2022-11-21T06:49:38.927Z,13.25
2022-11-21T06:54:41.238Z,19.73
2022-11-21T06:59:43.997Z,14.63
2022-11-21T07:04:46.382Z,11.45
2022-11-21T07:09:48.949Z,11.32
2022-11-21T07:14:51.385Z,3.72
2022-11-21T07:19:53.674Z,13.05
2022-11-21T07:24:56.109Z,19.25
2022-11-21T07:29:59.028Z,12.27
2022-11-21T07:35:01.273Z,8.57
2022-11-21T07:40:03.532Z,4.55
2022-11-21T07:45:06.214Z,13.02
2022-11-21T07:50:11.047Z,6.10
2022-11-21T07:55:13.402Z,8.60
2022-11-21T08:00:16.449Z,9.57
2022-11-21T08:05:18.862Z,14.27
2022-11-21T08:10:21.622Z,10.70
2022-11-21T08:15:23.877Z,9.60
2022-11-21T08:20:26.612Z,7.15
2022-11-21T08:25:28.994Z,11.63
2022-11-21T08:30:31.847Z,10.38
2022-11-21T08:35:37.301Z,6.20
2022-11-21T08:40:41.037Z,13.88
2022-11-21T08:45:43.522Z,7.80
2022-11-21T08:50:46.068Z,4.90
2022-11-21T08:55:48.297Z,5.22
2022-11-21T09:00:50.663Z,3.55
2022-11-21T09:05:53.065Z,7.22
2022-11-21T09:10:55.281Z,7.20
2022-11-21T09:16:20.583Z,4.85
2022-11-21T09:21:23.277Z,3.58
2022-11-21T09:26:25.621Z,6.57
2022-11-21T09:31:28.028Z,2.13
2022-11-21T09:36:30.275Z,5.90
2022-11-21T09:42:06.153Z,2.05
2022-11-21T09:47:23.628Z,2.70
2022-11-21T09:52:49.272Z,4.80
2022-11-21T09:57:51.866Z,3.30
2022-11-21T10:02:55.582Z,4.15
2022-11-21T10:08:05.937Z,0.55
2022-11-21T10:13:11.294Z,0.38
2022-11-21T10:19:01.475Z,0.20
2022-11-21T10:24:51.640Z,3.60
2022-11-21T10:30:02.854Z,11.20
2022-11-21T10:35:15.735Z,5.57
2022-11-21T10:40:27.200Z,8.82
2022-11-21T10:45:29.647Z,5.18
2022-11-21T10:50:47.621Z,4.90
2022-11-21T10:56:20.346Z,9.00
2022-11-21T11:01:24.261Z,18.70
2022-11-21T11:06:29.925Z,10.40
2022-11-21T11:11:32.564Z,4.30
2022-11-21T11:16:41.670Z,3.55
2022-11-21T11:21:46.329Z,1.70
2022-11-21T11:26:49.133Z,2.33
2022-11-21T11:31:57.153Z,4.07
2022-11-21T11:37:05.065Z,2.03
2022-11-21T11:42:54.194Z,1.88
2022-11-21T11:47:59.936Z,2.10
2022-11-21T11:53:11.061Z,6.97
2022-11-21T11:58:19.199Z,2.40
2022-11-21T12:03:30.997Z,1.23
2022-11-21T12:08:54.081Z,9.63
2022-11-21T12:13:57.969Z,7.15
2022-11-21T12:19:15.690Z,7.05
2022-11-21T12:24:21.392Z,6.90
2022-11-21T12:29:35.266Z,2.85
2022-11-21T12:35:06.071Z,5.53
2022-11-21T12:40:29.688Z,5.35
2022-11-21T12:45:40.732Z,2.70
2022-11-21T12:51:24.536Z,2.22
2022-11-21T12:57:05.231Z,1.05
2022-11-21T13:07:23.184Z,6.97
2022-11-21T13:12:54.407Z,2.22
2022-11-21T13:18:23.659Z,2.63
2022-11-21T13:23:42.538Z,4.38
2022-11-21T13:28:47.488Z,2.88
2022-11-21T13:33:51.623Z,1.70
2022-11-21T13:38:54.448Z,4.88
2022-11-21T13:44:32.002Z,4.03
2022-11-21T13:49:40.452Z,2.35
2022-11-21T13:55:01.269Z,3.70
2022-11-21T14:00:30.528Z,3.00
2022-11-21T14:06:14.244Z,8.48
2022-11-21T14:11:50.156Z,4.82
2022-11-21T14:17:13.367Z,2.50
2022-11-21T14:22:34.614Z,3.40
2022-11-21T14:27:45.368Z,0.95
2022-11-21T14:32:53.877Z,4.63
2022-11-21T14:37:58.609Z,0.60
2022-11-21T14:43:01.742Z,0.80
2022-11-21T14:48:12.968Z,1.95
2022-11-21T14:53:15.213Z,1.25
2022-11-21T14:58:18.123Z,2.70
2022-11-21T15:03:24.343Z,1.05
2022-11-21T15:19:22.788Z,1.95
2022-11-21T15:24:33.005Z,1.77
2022-11-21T15:29:35.491Z,6.50
2022-11-21T15:34:37.874Z,4.55
2022-11-21T15:39:48.416Z,4.95
2022-11-21T15:45:19.822Z,6.68
2022-11-21T15:50:25.020Z,4.70
2022-11-21T15:55:31.966Z,4.35
2022-11-21T16:00:34.224Z,10.80
2022-11-21T16:05:36.727Z,11.75
2022-11-21T16:10:39.111Z,2.72
2022-11-21T16:15:41.640Z,3.58
2022-11-21T16:20:43.915Z,2.42
2022-11-21T16:25:55.882Z,3.42
2022-11-21T16:30:59.743Z,3.03
2022-11-21T16:36:02.225Z,2.65
2022-11-21T16:41:05.847Z,9.02
2022-11-21T16:46:09.950Z,12.68
2022-11-21T16:51:19.756Z,10.55
2022-11-21T16:56:22.146Z,4.95
2022-11-21T17:01:26.907Z,5.63
2022-11-21T17:06:30.846Z,6.40
2022-11-21T17:11:33.176Z,22.77
2022-11-21T17:16:36.105Z,10.57
2022-11-21T17:21:38.662Z,9.40
2022-11-21T17:26:41.234Z,8.18
2022-11-21T17:31:43.656Z,7.32
2022-11-21T17:36:45.875Z,3.88
2022-11-21T17:41:48.408Z,2.80
2022-11-21T17:46:50.916Z,3.03
2022-11-21T17:51:56.630Z,5.28
2022-11-21T17:57:00.624Z,6.75
2022-11-21T18:02:02.979Z,10.52
2022-11-21T18:07:07.436Z,7.90
2022-11-21T18:12:09.833Z,5.93
2022-11-21T18:17:12.177Z,8.20
2022-11-21T18:22:14.644Z,5.65
2022-11-21T18:27:16.797Z,11.68
2022-11-21T18:32:19.014Z,7.13
2022-11-21T18:37:21.546Z,10.15
2022-11-21T18:42:24.032Z,6.93
2022-11-21T18:47:27.924Z,5.28
2022-11-21T18:52:33.922Z,6.47
2022-11-21T18:57:36.162Z,15.27
2022-11-21T19:02:38.653Z,26.15
2022-11-21T19:07:40.977Z,24.85
2022-11-21T19:12:43.209Z,13.02
2022-11-21T19:17:45.428Z,21.33
2022-11-21T19:22:47.719Z,10.05
2022-11-21T19:27:50.035Z,7.43
2022-11-21T19:32:52.417Z,11.70
2022-11-21T19:37:54.585Z,14.77
2022-11-21T19:42:56.782Z,8.43
2022-11-21T19:47:59.730Z,21.00
2022-11-21T19:53:02.010Z,4.97
2022-11-21T19:58:04.258Z,13.32
2022-11-21T20:03:06.520Z,8.05
2022-11-21T20:08:17.220Z,9.93
2022-11-21T20:13:20.205Z,13.05
2022-11-21T20:18:22.497Z,11.38
2022-11-21T20:23:24.958Z,12.32
2022-11-21T20:28:27.346Z,10.98
2022-11-21T20:33:29.752Z,18.45
2022-11-21T20:38:32.112Z,15.60
2022-11-21T20:44:14.431Z,14.07
2022-11-21T20:48:57.178Z,15.07
2022-11-21T20:54:03.300Z,6.47
2022-11-21T20:59:06.348Z,16.67
2022-11-21T21:04:09.990Z,12.18
2022-11-21T21:09:12.288Z,15.35
2022-11-21T21:14:14.488Z,13.93
2022-11-21T21:19:20.765Z,13.00
2022-11-21T21:24:23.161Z,14.68
2022-11-21T21:29:25.423Z,31.75
2022-11-21T21:34:28.134Z,47.28
2022-11-21T21:39:30.875Z,33.65
2022-11-21T21:44:33.853Z,31.55
2022-11-21T21:49:36.316Z,18.13
2022-11-21T21:54:39.552Z,13.02
2022-11-21T21:59:41.935Z,5.47
2022-11-21T22:04:46.978Z,7.18
2022-11-21T22:09:52.812Z,3.25
2022-11-21T22:14:55.162Z,5.95
2022-11-21T22:19:57.374Z,3.28
2022-11-21T22:24:59.805Z,4.63
2022-11-21T22:30:02.236Z,2.95
2022-11-21T22:35:04.612Z,7.65
2022-11-21T22:40:07.232Z,5.13
2022-11-21T22:45:10.635Z,6.10
2022-11-21T22:50:13.111Z,7.75
2022-11-21T22:55:15.550Z,4.47
2022-11-21T23:00:18.351Z,5.80
2022-11-21T23:05:20.683Z,5.00
2022-11-21T23:10:22.909Z,6.15
2022-11-21T23:15:25.569Z,10.48
2022-11-21T23:20:27.940Z,6.25
2022-11-21T23:25:30.153Z,6.63
2022-11-21T23:30:32.522Z,5.28
2022-11-21T23:35:34.712Z,4.65
2022-11-21T23:40:37.147Z,4.57
2022-11-21T23:45:39.440Z,6.35
2022-11-21T23:50:41.877Z,7.15
2022-11-21T23:55:45.044Z,2.85
